»·PEaware :: WAT388 KVCV-KSAN

WAT388 :: KVCV-KSAN

FLIGHT INFORMATION

Flight Status: Arrived
Operator:
Walker Air Transport
More flights by this operator :: More flights under this callsign
Pilot: Jacob A. (30091)
Aircraft: MOONEY M-20 201 202 205 220 ATS MSE
(M20P)
More flights by this aircraft type
Origin: KVCV Socal Logistics
United States
Destination: KSAN San Diego Intl-Lindbergh
United States
More flights between these airports :: More routes between these airports
Route: + JLI V514 CANNO
File this flight plan on PilotEdge
Remarks:
Altitude:
(Current/Filed)
13,500ft
Speed:
(Current/Filed)
170kts
Departed: 27-Oct-20 02:50 PM
Arrived: 27-Oct-20 03:47 PM
Distance/Time
Traveled:
112nm/0:57
Distance/Time
To Go:
Arrived

Flight Plot

Page will automatically refresh every two minutes.

Flight plan parsing failed; only flown route is shown


Map Options




Map Legend


Flown Route
Filed Route
Departure Airport
Arrival Airport
Navaid (VOR, NDB)
Fix

Horizontal Profiles

Position Reports

Time Latitude Longitude Heading Altitude Ground
Speed
27-Oct-20 14:23 34.588533 -117.374884 39 2867ft 0kts
27-Oct-20 14:24 34.588533 -117.374884 39 2867ft 0kts
27-Oct-20 14:25 34.588533 -117.374884 39 2867ft 0kts
27-Oct-20 14:26 34.588533 -117.374884 39 2867ft 0kts
27-Oct-20 14:27 34.588533 -117.374884 39 2867ft 0kts
27-Oct-20 14:28 34.588533 -117.374884 39 2867ft 0kts
27-Oct-20 14:29 34.588533 -117.374884 39 2867ft 0kts
27-Oct-20 14:30 34.588533 -117.374884 39 2867ft 0kts
27-Oct-20 14:31 34.588533 -117.374884 39 2867ft 0kts
27-Oct-20 14:32 34.588533 -117.374884 39 2867ft 0kts
27-Oct-20 14:33 34.588533 -117.374884 39 2867ft 0kts
27-Oct-20 14:34 34.588533 -117.374884 39 2867ft 0kts
27-Oct-20 14:36 34.588533 -117.374884 39 2867ft 0kts
27-Oct-20 14:37 34.588533 -117.374884 39 2867ft 0kts
27-Oct-20 14:38 34.588533 -117.374884 39 2867ft 0kts
27-Oct-20 14:39 34.588533 -117.374884 39 2867ft 0kts
27-Oct-20 14:40 34.588533 -117.374884 39 2867ft 0kts
27-Oct-20 14:41 34.588533 -117.374884 39 2867ft 0kts
27-Oct-20 14:42 34.588533 -117.374884 39 2867ft 0kts
27-Oct-20 14:43 34.588533 -117.374884 39 2867ft 0kts
27-Oct-20 14:44 34.588533 -117.374884 39 2867ft 0kts
27-Oct-20 14:45 34.588857 -117.377272 256 2868ft 17kts
27-Oct-20 14:46 34.584940 -117.382285 224 2877ft 23kts
27-Oct-20 14:47 34.580689 -117.384392 209 2881ft 16kts
27-Oct-20 14:48 34.580461 -117.385197 269 2881ft 0kts
27-Oct-20 14:49 34.580447 -117.385649 269 2882ft 11kts
27-Oct-20 14:50 34.593981 -117.386492 0 3152ft 94kts
27-Oct-20 14:51 34.599317 -117.394321 186 4183ft 125kts
27-Oct-20 14:52 34.557174 -117.393567 177 4397ft 159kts
27-Oct-20 14:53 34.513896 -117.383442 163 5400ft 160kts
27-Oct-20 14:54 34.475433 -117.357652 144 6402ft 158kts
27-Oct-20 14:54 34.445618 -117.331902 144 7238ft 156kts
27-Oct-20 14:56 34.404823 -117.296683 144 8403ft 153kts
27-Oct-20 14:56 34.375418 -117.273193 155 9240ft 150kts
27-Oct-20 14:58 34.331503 -117.249355 155 10406ft 146kts
27-Oct-20 14:58 34.300930 -117.232768 155 11241ft 141kts
27-Oct-20 14:59 34.265268 -117.213370 155 12245ft 138kts
27-Oct-20 15:00 34.230729 -117.194512 155 13241ft 133kts
27-Oct-20 15:01 34.192912 -117.173908 155 13495ft 166kts
27-Oct-20 15:02 34.148388 -117.149671 155 13498ft 180kts
27-Oct-20 15:03 34.108426 -117.112957 147 13499ft 182kts
27-Oct-20 15:04 34.062629 -117.086565 155 13499ft 183kts
27-Oct-20 15:05 34.016260 -117.061123 155 13499ft 183kts
27-Oct-20 15:06 33.969859 -117.035676 155 13499ft 183kts
27-Oct-20 15:07 33.923589 -117.010340 155 13500ft 183kts
27-Oct-20 15:08 33.877209 -116.984972 155 13499ft 183kts
27-Oct-20 15:09 33.830789 -116.959606 155 13500ft 183kts
27-Oct-20 15:10 33.784460 -116.934320 155 13499ft 183kts
27-Oct-20 15:11 33.737929 -116.908952 155 13500ft 183kts
27-Oct-20 15:12 33.691611 -116.883738 155 13499ft 183kts
27-Oct-20 15:13 33.645201 -116.858495 155 13438ft 186kts
27-Oct-20 15:14 33.596213 -116.831900 155 12935ft 196kts
27-Oct-20 15:15 33.546285 -116.804812 155 12434ft 197kts
27-Oct-20 15:16 33.496280 -116.777715 155 11934ft 197kts
27-Oct-20 15:17 33.446026 -116.750534 155 11433ft 198kts
27-Oct-20 15:18 33.395722 -116.723334 155 10932ft 198kts
27-Oct-20 15:19 33.345305 -116.696133 155 10431ft 198kts
27-Oct-20 15:20 33.294951 -116.668995 155 9931ft 199kts
27-Oct-20 15:21 33.244512 -116.641842 155 9521ft 194kts
27-Oct-20 15:22 33.198200 -116.616944 155 9500ft 176kts
27-Oct-20 15:23 33.153760 -116.593073 156 9500ft 174kts
27-Oct-20 15:24 33.104889 -116.589403 185 9240ft 183kts
27-Oct-20 15:25 33.053181 -116.594988 185 8737ft 187kts
27-Oct-20 15:26 33.001188 -116.600386 185 8238ft 189kts
27-Oct-20 15:27 32.947714 -116.605930 184 7735ft 194kts
27-Oct-20 15:28 32.895710 -116.611312 185 7503ft 180kts
27-Oct-20 15:29 32.846328 -116.616409 185 7500ft 177kts
27-Oct-20 15:30 32.797250 -116.621477 184 7500ft 177kts
27-Oct-20 15:31 32.752743 -116.641575 179 7392ft 183kts
27-Oct-20 15:32 32.703238 -116.640062 190 6247ft 164kts
27-Oct-20 15:33 32.686545 -116.681219 267 5524ft 134kts
27-Oct-20 15:34 32.684920 -116.725577 267 4815ft 143kts
27-Oct-20 15:35 32.683281 -116.769489 267 4449ft 124kts
27-Oct-20 15:36 32.681557 -116.816108 267 3469ft 137kts
27-Oct-20 15:37 32.677896 -116.858083 262 3402ft 137kts
27-Oct-20 15:38 32.674610 -116.903974 277 3399ft 124kts
27-Oct-20 15:39 32.688169 -116.938408 293 3401ft 113kts
27-Oct-20 15:40 32.694777 -116.975872 263 2988ft 131kts
27-Oct-20 15:41 32.693549 -117.016538 269 2564ft 122kts
27-Oct-20 15:42 32.700471 -117.057958 285 2328ft 142kts
27-Oct-20 15:43 32.712361 -117.106430 286 1549ft 156kts
27-Oct-20 15:44 32.724582 -117.153369 285 665ft 124kts
27-Oct-20 15:45 32.732225 -117.184223 284 24ft 87kts
27-Oct-20 15:46 32.734323 -117.194676 250 17ft 12kts
27-Oct-20 15:47 32.734013 -117.194909 169 17ft 0kts
27-Oct-20 15:48 32.733762 -117.194632 108 17ft 12kts
27-Oct-20 15:49 32.732342 -117.192509 200 14ft 0kts

Navigation Log

Ident Type
Flight plan parsing failed, navigation log unavailable